sensor_id;sensor_type;location;lat;lon;timestamp;P1;durP1;ratioP1;P2;durP2;ratioP2
10588;SDS011;5342;55.676;13.346;2022-10-13T00:00:44;6.63;;;2.40;;
10588;SDS011;5342;55.676;13.346;2022-10-13T00:03:11;7.43;;;2.60;;
10588;SDS011;5342;55.676;13.346;2022-10-13T00:05:42;8.43;;;2.53;;
10588;SDS011;5342;55.676;13.346;2022-10-13T00:08:09;4.53;;;2.00;;
10588;SDS011;5342;55.676;13.346;2022-10-13T00:10:37;5.67;;;2.53;;
10588;SDS011;5342;55.676;13.346;2022-10-13T00:13:04;5.13;;;2.20;;
10588;SDS011;5342;55.676;13.346;2022-10-13T00:15:30;6.93;;;2.50;;
10588;SDS011;5342;55.676;13.346;2022-10-13T00:17:57;7.10;;;2.53;;
10588;SDS011;5342;55.676;13.346;2022-10-13T00:20:24;9.30;;;2.27;;
10588;SDS011;5342;55.676;13.346;2022-10-13T00:22:50;4.77;;;2.27;;
10588;SDS011;5342;55.676;13.346;2022-10-13T00:25:17;7.77;;;2.67;;
10588;SDS011;5342;55.676;13.346;2022-10-13T00:27:43;7.40;;;2.60;;
10588;SDS011;5342;55.676;13.346;2022-10-13T00:30:10;6.83;;;2.10;;
10588;SDS011;5342;55.676;13.346;2022-10-13T00:32:36;5.90;;;2.67;;
10588;SDS011;5342;55.676;13.346;2022-10-13T00:35:03;10.00;;;2.57;;
10588;SDS011;5342;55.676;13.346;2022-10-13T00:37:30;6.07;;;2.53;;
10588;SDS011;5342;55.676;13.346;2022-10-13T00:39:56;7.33;;;2.87;;
10588;SDS011;5342;55.676;13.346;2022-10-13T00:42:23;5.67;;;2.33;;
10588;SDS011;5342;55.676;13.346;2022-10-13T00:47:27;8.30;;;2.87;;
10588;SDS011;5342;55.676;13.346;2022-10-13T00:49:55;13.73;;;2.90;;
10588;SDS011;5342;55.676;13.346;2022-10-13T00:52:22;8.17;;;2.77;;
10588;SDS011;5342;55.676;13.346;2022-10-13T00:54:49;6.43;;;2.80;;
10588;SDS011;5342;55.676;13.346;2022-10-13T00:57:16;8.47;;;3.17;;
10588;SDS011;5342;55.676;13.346;2022-10-13T00:59:43;12.63;;;3.43;;
10588;SDS011;5342;55.676;13.346;2022-10-13T01:02:09;8.27;;;3.23;;
10588;SDS011;5342;55.676;13.346;2022-10-13T01:04:37;10.77;;;2.80;;
10588;SDS011;5342;55.676;13.346;2022-10-13T01:07:04;10.70;;;2.80;;
10588;SDS011;5342;55.676;13.346;2022-10-13T01:09:31;7.30;;;3.30;;
10588;SDS011;5342;55.676;13.346;2022-10-13T01:12:07;7.67;;;2.47;;
10588;SDS011;5342;55.676;13.346;2022-10-13T01:14:47;7.10;;;2.57;;
10588;SDS011;5342;55.676;13.346;2022-10-13T01:28:10;8.23;;;3.40;;
10588;SDS011;5342;55.676;13.346;2022-10-13T01:30:44;7.30;;;2.50;;
10588;SDS011;5342;55.676;13.346;2022-10-13T01:38:46;10.47;;;3.30;;
10588;SDS011;5342;55.676;13.346;2022-10-13T01:41:28;8.50;;;2.63;;
10588;SDS011;5342;55.676;13.346;2022-10-13T01:44:13;6.23;;;2.80;;
10588;SDS011;5342;55.676;13.346;2022-10-13T01:46:40;11.00;;;3.07;;
10588;SDS011;5342;55.676;13.346;2022-10-13T01:49:10;7.93;;;2.73;;
10588;SDS011;5342;55.676;13.346;2022-10-13T01:51:37;7.93;;;3.20;;
10588;SDS011;5342;55.676;13.346;2022-10-13T01:54:04;9.47;;;2.90;;
10588;SDS011;5342;55.676;13.346;2022-10-13T01:56:30;10.37;;;3.23;;
10588;SDS011;5342;55.676;13.346;2022-10-13T01:58:58;8.43;;;2.93;;
10588;SDS011;5342;55.676;13.346;2022-10-13T02:11:22;8.00;;;2.90;;
10588;SDS011;5342;55.676;13.346;2022-10-13T02:14:32;6.80;;;3.30;;
10588;SDS011;5342;55.676;13.346;2022-10-13T02:16:40;8.73;;;4.00;;
10588;SDS011;5342;55.676;13.346;2022-10-13T02:19:08;11.07;;;3.30;;
10588;SDS011;5342;55.676;13.346;2022-10-13T02:21:36;5.00;;;3.13;;
10588;SDS011;5342;55.676;13.346;2022-10-13T02:24:03;7.13;;;3.53;;
10588;SDS011;5342;55.676;13.346;2022-10-13T02:26:31;9.80;;;4.00;;
10588;SDS011;5342;55.676;13.346;2022-10-13T02:28:58;8.77;;;3.87;;
10588;SDS011;5342;55.676;13.346;2022-10-13T02:31:24;9.13;;;4.17;;
10588;SDS011;5342;55.676;13.346;2022-10-13T02:33:51;8.67;;;3.97;;
10588;SDS011;5342;55.676;13.346;2022-10-13T02:36:17;7.97;;;3.77;;
10588;SDS011;5342;55.676;13.346;2022-10-13T02:38:44;10.97;;;3.70;;
10588;SDS011;5342;55.676;13.346;2022-10-13T02:41:10;11.47;;;3.37;;
10588;SDS011;5342;55.676;13.346;2022-10-13T02:43:37;8.33;;;4.43;;
10588;SDS011;5342;55.676;13.346;2022-10-13T02:46:04;11.80;;;4.03;;
10588;SDS011;5342;55.676;13.346;2022-10-13T02:48:30;11.63;;;3.77;;
10588;SDS011;5342;55.676;13.346;2022-10-13T02:50:57;9.57;;;3.83;;
10588;SDS011;5342;55.676;13.346;2022-10-13T02:53:23;12.53;;;3.97;;
10588;SDS011;5342;55.676;13.346;2022-10-13T02:55:50;7.80;;;3.50;;
10588;SDS011;5342;55.676;13.346;2022-10-13T02:58:16;9.47;;;3.67;;
10588;SDS011;5342;55.676;13.346;2022-10-13T03:00:43;6.77;;;3.83;;
10588;SDS011;5342;55.676;13.346;2022-10-13T03:03:10;7.07;;;3.10;;
10588;SDS011;5342;55.676;13.346;2022-10-13T03:05:36;7.03;;;3.03;;
10588;SDS011;5342;55.676;13.346;2022-10-13T03:08:03;12.33;;;3.30;;
10588;SDS011;5342;55.676;13.346;2022-10-13T03:10:30;10.40;;;3.67;;
10588;SDS011;5342;55.676;13.346;2022-10-13T03:12:57;13.97;;;4.73;;
10588;SDS011;5342;55.676;13.346;2022-10-13T03:15:23;8.60;;;3.67;;
10588;SDS011;5342;55.676;13.346;2022-10-13T03:17:50;12.00;;;3.73;;
10588;SDS011;5342;55.676;13.346;2022-10-13T03:20:16;12.93;;;3.30;;
10588;SDS011;5342;55.676;13.346;2022-10-13T03:22:43;13.40;;;3.47;;
10588;SDS011;5342;55.676;13.346;2022-10-13T03:25:09;5.53;;;3.07;;
10588;SDS011;5342;55.676;13.346;2022-10-13T03:27:36;6.93;;;3.73;;
10588;SDS011;5342;55.676;13.346;2022-10-13T03:30:02;9.73;;;3.70;;
10588;SDS011;5342;55.676;13.346;2022-10-13T03:32:29;13.90;;;4.00;;
10588;SDS011;5342;55.676;13.346;2022-10-13T03:34:56;10.17;;;3.97;;
10588;SDS011;5342;55.676;13.346;2022-10-13T03:37:22;12.47;;;3.60;;
10588;SDS011;5342;55.676;13.346;2022-10-13T03:39:49;8.33;;;3.27;;
10588;SDS011;5342;55.676;13.346;2022-10-13T03:42:16;12.67;;;3.53;;
10588;SDS011;5342;55.676;13.346;2022-10-13T03:44:42;8.67;;;3.60;;
10588;SDS011;5342;55.676;13.346;2022-10-13T03:47:09;9.60;;;3.60;;
10588;SDS011;5342;55.676;13.346;2022-10-13T03:49:36;12.73;;;3.97;;
10588;SDS011;5342;55.676;13.346;2022-10-13T03:52:04;11.10;;;3.80;;
10588;SDS011;5342;55.676;13.346;2022-10-13T03:54:31;8.90;;;3.53;;
10588;SDS011;5342;55.676;13.346;2022-10-13T03:56:57;9.20;;;4.03;;
10588;SDS011;5342;55.676;13.346;2022-10-13T03:59:24;13.20;;;3.40;;
10588;SDS011;5342;55.676;13.346;2022-10-13T04:01:52;10.10;;;3.30;;
10588;SDS011;5342;55.676;13.346;2022-10-13T04:04:18;12.77;;;3.20;;
10588;SDS011;5342;55.676;13.346;2022-10-13T04:06:45;8.27;;;3.13;;
10588;SDS011;5342;55.676;13.346;2022-10-13T04:09:11;6.97;;;3.37;;
10588;SDS011;5342;55.676;13.346;2022-10-13T04:11:38;11.90;;;3.20;;
10588;SDS011;5342;55.676;13.346;2022-10-13T04:14:04;9.77;;;3.70;;
10588;SDS011;5342;55.676;13.346;2022-10-13T04:16:31;9.57;;;3.00;;
10588;SDS011;5342;55.676;13.346;2022-10-13T04:18:59;9.80;;;3.97;;
10588;SDS011;5342;55.676;13.346;2022-10-13T04:21:26;12.73;;;3.60;;
10588;SDS011;5342;55.676;13.346;2022-10-13T04:23:53;11.40;;;3.70;;
10588;SDS011;5342;55.676;13.346;2022-10-13T04:26:22;9.77;;;3.30;;
10588;SDS011;5342;55.676;13.346;2022-10-13T04:28:49;8.37;;;3.83;;
10588;SDS011;5342;55.676;13.346;2022-10-13T04:31:16;10.50;;;3.40;;
10588;SDS011;5342;55.676;13.346;2022-10-13T04:33:46;16.33;;;3.43;;
10588;SDS011;5342;55.676;13.346;2022-10-13T04:36:13;10.63;;;3.83;;
10588;SDS011;5342;55.676;13.346;2022-10-13T04:38:41;10.97;;;4.30;;
10588;SDS011;5342;55.676;13.346;2022-10-13T04:41:08;14.00;;;4.17;;
10588;SDS011;5342;55.676;13.346;2022-10-13T04:43:35;9.20;;;4.60;;
10588;SDS011;5342;55.676;13.346;2022-10-13T04:46:02;10.27;;;4.60;;
10588;SDS011;5342;55.676;13.346;2022-10-13T04:48:29;9.13;;;4.83;;
10588;SDS011;5342;55.676;13.346;2022-10-13T04:50:59;15.30;;;4.93;;
10588;SDS011;5342;55.676;13.346;2022-10-13T04:53:26;8.60;;;4.37;;
10588;SDS011;5342;55.676;13.346;2022-10-13T04:55:54;10.77;;;4.30;;
10588;SDS011;5342;55.676;13.346;2022-10-13T04:58:22;15.67;;;5.17;;
10588;SDS011;5342;55.676;13.346;2022-10-13T05:00:48;8.50;;;5.13;;
10588;SDS011;5342;55.676;13.346;2022-10-13T05:03:15;12.00;;;4.53;;
10588;SDS011;5342;55.676;13.346;2022-10-13T05:05:42;10.33;;;5.13;;
10588;SDS011;5342;55.676;13.346;2022-10-13T05:08:08;10.67;;;4.90;;
10588;SDS011;5342;55.676;13.346;2022-10-13T05:10:35;13.40;;;5.37;;
10588;SDS011;5342;55.676;13.346;2022-10-13T05:13:01;12.27;;;5.47;;
10588;SDS011;5342;55.676;13.346;2022-10-13T05:15:28;11.23;;;5.20;;
10588;SDS011;5342;55.676;13.346;2022-10-13T05:17:54;7.87;;;4.80;;
10588;SDS011;5342;55.676;13.346;2022-10-13T05:20:21;13.17;;;5.20;;
10588;SDS011;5342;55.676;13.346;2022-10-13T05:22:47;13.77;;;5.43;;
10588;SDS011;5342;55.676;13.346;2022-10-13T05:25:14;13.03;;;5.53;;
10588;SDS011;5342;55.676;13.346;2022-10-13T05:27:42;12.87;;;6.00;;
10588;SDS011;5342;55.676;13.346;2022-10-13T05:30:10;10.83;;;5.87;;
10588;SDS011;5342;55.676;13.346;2022-10-13T05:32:37;14.80;;;5.23;;
10588;SDS011;5342;55.676;13.346;2022-10-13T05:35:04;12.60;;;5.50;;
10588;SDS011;5342;55.676;13.346;2022-10-13T05:37:30;11.83;;;5.73;;
10588;SDS011;5342;55.676;13.346;2022-10-13T05:39:57;11.23;;;4.90;;
10588;SDS011;5342;55.676;13.346;2022-10-13T05:42:24;15.53;;;5.70;;
10588;SDS011;5342;55.676;13.346;2022-10-13T05:44:50;9.73;;;5.30;;
10588;SDS011;5342;55.676;13.346;2022-10-13T05:47:17;10.80;;;5.83;;
10588;SDS011;5342;55.676;13.346;2022-10-13T05:49:43;13.27;;;5.03;;
10588;SDS011;5342;55.676;13.346;2022-10-13T05:52:10;13.87;;;5.93;;
10588;SDS011;5342;55.676;13.346;2022-10-13T05:54:41;13.17;;;6.30;;
10588;SDS011;5342;55.676;13.346;2022-10-13T05:59:42;13.47;;;6.20;;
10588;SDS011;5342;55.676;13.346;2022-10-13T06:02:10;11.17;;;5.60;;
10588;SDS011;5342;55.676;13.346;2022-10-13T06:04:38;9.47;;;5.27;;
10588;SDS011;5342;55.676;13.346;2022-10-13T06:07:06;7.87;;;5.07;;
10588;SDS011;5342;55.676;13.346;2022-10-13T06:09:34;14.53;;;5.37;;
10588;SDS011;5342;55.676;13.346;2022-10-13T06:12:03;12.63;;;5.03;;
10588;SDS011;5342;55.676;13.346;2022-10-13T06:14:29;14.33;;;4.40;;
10588;SDS011;5342;55.676;13.346;2022-10-13T06:16:56;14.97;;;5.10;;
10588;SDS011;5342;55.676;13.346;2022-10-13T06:19:23;15.03;;;5.27;;
10588;SDS011;5342;55.676;13.346;2022-10-13T06:21:49;8.77;;;4.83;;
10588;SDS011;5342;55.676;13.346;2022-10-13T06:24:16;13.40;;;5.33;;
10588;SDS011;5342;55.676;13.346;2022-10-13T06:26:43;10.63;;;5.10;;
10588;SDS011;5342;55.676;13.346;2022-10-13T06:29:09;13.43;;;5.20;;
10588;SDS011;5342;55.676;13.346;2022-10-13T06:31:36;15.57;;;4.80;;
10588;SDS011;5342;55.676;13.346;2022-10-13T06:34:02;13.50;;;5.53;;
10588;SDS011;5342;55.676;13.346;2022-10-13T06:36:29;8.00;;;4.60;;
10588;SDS011;5342;55.676;13.346;2022-10-13T06:38:56;14.87;;;4.87;;
10588;SDS011;5342;55.676;13.346;2022-10-13T06:41:22;10.77;;;4.43;;
10588;SDS011;5342;55.676;13.346;2022-10-13T06:43:49;11.30;;;4.57;;
10588;SDS011;5342;55.676;13.346;2022-10-13T06:46:15;12.00;;;5.43;;
10588;SDS011;5342;55.676;13.346;2022-10-13T06:48:42;11.03;;;4.27;;
10588;SDS011;5342;55.676;13.346;2022-10-13T06:51:09;8.43;;;4.03;;
10588;SDS011;5342;55.676;13.346;2022-10-13T06:53:36;10.73;;;4.43;;
10588;SDS011;5342;55.676;13.346;2022-10-13T06:56:03;11.73;;;4.67;;
10588;SDS011;5342;55.676;13.346;2022-10-13T06:58:30;11.73;;;5.27;;
10588;SDS011;5342;55.676;13.346;2022-10-13T07:00:57;10.20;;;4.63;;
10588;SDS011;5342;55.676;13.346;2022-10-13T07:03:24;11.27;;;5.83;;
10588;SDS011;5342;55.676;13.346;2022-10-13T07:05:50;12.07;;;6.13;;
10588;SDS011;5342;55.676;13.346;2022-10-13T07:08:17;13.23;;;6.37;;
10588;SDS011;5342;55.676;13.346;2022-10-13T07:10:44;14.07;;;5.77;;
10588;SDS011;5342;55.676;13.346;2022-10-13T07:13:10;13.13;;;6.13;;
10588;SDS011;5342;55.676;13.346;2022-10-13T07:15:37;11.50;;;5.77;;
10588;SDS011;5342;55.676;13.346;2022-10-13T07:18:04;20.10;;;6.53;;
10588;SDS011;5342;55.676;13.346;2022-10-13T07:20:31;13.47;;;5.93;;
10588;SDS011;5342;55.676;13.346;2022-10-13T07:22:57;13.77;;;4.90;;
10588;SDS011;5342;55.676;13.346;2022-10-13T07:25:24;14.50;;;5.47;;
10588;SDS011;5342;55.676;13.346;2022-10-13T07:27:50;8.03;;;5.23;;
10588;SDS011;5342;55.676;13.346;2022-10-13T07:30:17;12.50;;;6.30;;
10588;SDS011;5342;55.676;13.346;2022-10-13T07:32:44;10.70;;;5.43;;
10588;SDS011;5342;55.676;13.346;2022-10-13T07:35:10;15.77;;;5.43;;
10588;SDS011;5342;55.676;13.346;2022-10-13T07:37:37;14.90;;;6.20;;
10588;SDS011;5342;55.676;13.346;2022-10-13T07:40:04;12.37;;;5.57;;
10588;SDS011;5342;55.676;13.346;2022-10-13T07:42:31;11.20;;;5.53;;
10588;SDS011;5342;55.676;13.346;2022-10-13T07:44:58;13.23;;;5.47;;
10588;SDS011;5342;55.676;13.346;2022-10-13T07:47:24;12.37;;;5.97;;
10588;SDS011;5342;55.676;13.346;2022-10-13T07:49:51;10.37;;;5.03;;
10588;SDS011;5342;55.676;13.346;2022-10-13T07:52:19;7.73;;;4.60;;
10588;SDS011;5342;55.676;13.346;2022-10-13T07:54:45;14.38;;;6.32;;
10588;SDS011;5342;55.676;13.346;2022-10-13T07:57:12;11.93;;;6.10;;
10588;SDS011;5342;55.676;13.346;2022-10-13T07:59:39;10.27;;;5.47;;
10588;SDS011;5342;55.676;13.346;2022-10-13T08:02:07;12.27;;;5.20;;
10588;SDS011;5342;55.676;13.346;2022-10-13T08:04:34;12.10;;;5.47;;
10588;SDS011;5342;55.676;13.346;2022-10-13T08:07:01;16.23;;;5.90;;
10588;SDS011;5342;55.676;13.346;2022-10-13T08:09:27;6.70;;;5.20;;
10588;SDS011;5342;55.676;13.346;2022-10-13T08:11:54;14.67;;;5.80;;
10588;SDS011;5342;55.676;13.346;2022-10-13T08:14:20;8.37;;;5.20;;
10588;SDS011;5342;55.676;13.346;2022-10-13T08:16:47;14.27;;;5.93;;
10588;SDS011;5342;55.676;13.346;2022-10-13T08:19:15;10.13;;;5.20;;
10588;SDS011;5342;55.676;13.346;2022-10-13T08:21:42;11.17;;;5.43;;
10588;SDS011;5342;55.676;13.346;2022-10-13T08:24:12;11.10;;;5.27;;
10588;SDS011;5342;55.676;13.346;2022-10-13T08:26:38;13.07;;;5.90;;
10588;SDS011;5342;55.676;13.346;2022-10-13T08:29:05;11.80;;;5.23;;
10588;SDS011;5342;55.676;13.346;2022-10-13T08:31:32;8.70;;;5.20;;
10588;SDS011;5342;55.676;13.346;2022-10-13T08:33:58;12.60;;;4.53;;
10588;SDS011;5342;55.676;13.346;2022-10-13T08:36:25;8.33;;;5.30;;
10588;SDS011;5342;55.676;13.346;2022-10-13T08:38:51;12.13;;;5.23;;
10588;SDS011;5342;55.676;13.346;2022-10-13T08:41:25;11.30;;;5.03;;
10588;SDS011;5342;55.676;13.346;2022-10-13T08:43:55;10.37;;;4.93;;
10588;SDS011;5342;55.676;13.346;2022-10-13T08:46:24;10.20;;;4.40;;
10588;SDS011;5342;55.676;13.346;2022-10-13T08:48:51;10.37;;;5.07;;
10588;SDS011;5342;55.676;13.346;2022-10-13T08:51:18;13.50;;;5.00;;
10588;SDS011;5342;55.676;13.346;2022-10-13T08:53:45;11.87;;;5.20;;
10588;SDS011;5342;55.676;13.346;2022-10-13T08:56:19;11.47;;;5.10;;
10588;SDS011;5342;55.676;13.346;2022-10-13T08:58:47;12.00;;;5.30;;
10588;SDS011;5342;55.676;13.346;2022-10-13T09:01:16;9.80;;;4.63;;
10588;SDS011;5342;55.676;13.346;2022-10-13T09:07:01;10.13;;;4.37;;
10588;SDS011;5342;55.676;13.346;2022-10-13T09:09:07;7.67;;;4.77;;
10588;SDS011;5342;55.676;13.346;2022-10-13T09:11:34;10.60;;;4.63;;
10588;SDS011;5342;55.676;13.346;2022-10-13T09:14:04;9.10;;;4.80;;
10588;SDS011;5342;55.676;13.346;2022-10-13T09:16:35;8.53;;;5.27;;
10588;SDS011;5342;55.676;13.346;2022-10-13T09:21:39;8.27;;;4.73;;
10588;SDS011;5342;55.676;13.346;2022-10-13T09:24:07;8.87;;;5.00;;
10588;SDS011;5342;55.676;13.346;2022-10-13T09:26:37;11.17;;;5.67;;
10588;SDS011;5342;55.676;13.346;2022-10-13T09:29:08;11.73;;;5.03;;
10588;SDS011;5342;55.676;13.346;2022-10-13T09:31:35;10.90;;;5.13;;
10588;SDS011;5342;55.676;13.346;2022-10-13T09:34:08;7.93;;;5.30;;
10588;SDS011;5342;55.676;13.346;2022-10-13T09:36:37;8.20;;;4.90;;
10588;SDS011;5342;55.676;13.346;2022-10-13T09:39:10;8.43;;;4.80;;
10588;SDS011;5342;55.676;13.346;2022-10-13T09:41:38;12.80;;;5.17;;
10588;SDS011;5342;55.676;13.346;2022-10-13T09:46:53;10.67;;;5.23;;
10588;SDS011;5342;55.676;13.346;2022-10-13T09:49:28;8.10;;;4.00;;
10588;SDS011;5342;55.676;13.346;2022-10-13T09:52:03;9.73;;;4.70;;
10588;SDS011;5342;55.676;13.346;2022-10-13T09:57:01;9.63;;;4.57;;
10588;SDS011;5342;55.676;13.346;2022-10-13T09:59:30;10.20;;;4.67;;
10588;SDS011;5342;55.676;13.346;2022-10-13T10:01:59;9.93;;;4.70;;
10588;SDS011;5342;55.676;13.346;2022-10-13T10:04:32;11.03;;;5.20;;
10588;SDS011;5342;55.676;13.346;2022-10-13T10:07:00;12.87;;;4.90;;
10588;SDS011;5342;55.676;13.346;2022-10-13T10:11:58;8.10;;;4.97;;
10588;SDS011;5342;55.676;13.346;2022-10-13T10:14:29;14.63;;;5.00;;
10588;SDS011;5342;55.676;13.346;2022-10-13T10:22:51;10.07;;;4.73;;
10588;SDS011;5342;55.676;13.346;2022-10-13T10:25:02;9.93;;;4.50;;
10588;SDS011;5342;55.676;13.346;2022-10-13T10:30:07;11.53;;;6.07;;
10588;SDS011;5342;55.676;13.346;2022-10-13T10:35:38;12.77;;;5.50;;
10588;SDS011;5342;55.676;13.346;2022-10-13T10:40:44;8.53;;;4.87;;
10588;SDS011;5342;55.676;13.346;2022-10-13T10:45:48;11.00;;;4.97;;
10588;SDS011;5342;55.676;13.346;2022-10-13T10:48:32;12.17;;;5.00;;
10588;SDS011;5342;55.676;13.346;2022-10-13T10:51:00;10.57;;;5.37;;
10588;SDS011;5342;55.676;13.346;2022-10-13T10:53:30;10.33;;;4.43;;
10588;SDS011;5342;55.676;13.346;2022-10-13T10:56:02;10.90;;;4.73;;
10588;SDS011;5342;55.676;13.346;2022-10-13T11:01:13;10.40;;;5.07;;
10588;SDS011;5342;55.676;13.346;2022-10-13T11:03:48;11.43;;;4.87;;
10588;SDS011;5342;55.676;13.346;2022-10-13T11:08:43;7.97;;;4.83;;
10588;SDS011;5342;55.676;13.346;2022-10-13T11:13:54;10.80;;;5.40;;
10588;SDS011;5342;55.676;13.346;2022-10-13T11:19:33;7.50;;;4.87;;
10588;SDS011;5342;55.676;13.346;2022-10-13T11:45:47;8.40;;;5.50;;
10588;SDS011;5342;55.676;13.346;2022-10-13T11:53:27;12.30;;;5.00;;
10588;SDS011;5342;55.676;13.346;2022-10-13T11:55:57;8.90;;;4.63;;
10588;SDS011;5342;55.676;13.346;2022-10-13T11:58:26;6.90;;;4.40;;
10588;SDS011;5342;55.676;13.346;2022-10-13T12:00:55;11.20;;;5.27;;
10588;SDS011;5342;55.676;13.346;2022-10-13T12:03:30;9.90;;;4.93;;
10588;SDS011;5342;55.676;13.346;2022-10-13T12:05:59;8.93;;;4.83;;
10588;SDS011;5342;55.676;13.346;2022-10-13T12:08:26;10.30;;;4.60;;
10588;SDS011;5342;55.676;13.346;2022-10-13T12:10:53;9.07;;;4.90;;
10588;SDS011;5342;55.676;13.346;2022-10-13T12:13:23;10.17;;;4.60;;
10588;SDS011;5342;55.676;13.346;2022-10-13T12:15:55;7.80;;;5.07;;
10588;SDS011;5342;55.676;13.346;2022-10-13T12:18:25;7.27;;;5.07;;
10588;SDS011;5342;55.676;13.346;2022-10-13T12:20:53;12.17;;;5.00;;
10588;SDS011;5342;55.676;13.346;2022-10-13T12:23:20;11.17;;;5.57;;
10588;SDS011;5342;55.676;13.346;2022-10-13T12:25:47;9.13;;;5.60;;
10588;SDS011;5342;55.676;13.346;2022-10-13T12:28:21;11.47;;;6.23;;
10588;SDS011;5342;55.676;13.346;2022-10-13T12:30:51;10.87;;;6.13;;
10588;SDS011;5342;55.676;13.346;2022-10-13T12:33:21;12.23;;;6.83;;
10588;SDS011;5342;55.676;13.346;2022-10-13T12:35:48;12.37;;;6.97;;
10588;SDS011;5342;55.676;13.346;2022-10-13T12:38:16;11.80;;;7.40;;
10588;SDS011;5342;55.676;13.346;2022-10-13T12:40:44;13.27;;;6.77;;
10588;SDS011;5342;55.676;13.346;2022-10-13T12:43:15;9.80;;;6.33;;
10588;SDS011;5342;55.676;13.346;2022-10-13T12:45:43;13.17;;;7.67;;
10588;SDS011;5342;55.676;13.346;2022-10-13T12:48:29;11.37;;;7.43;;
10588;SDS011;5342;55.676;13.346;2022-10-13T12:51:06;9.40;;;7.70;;
10588;SDS011;5342;55.676;13.346;2022-10-13T12:53:33;11.47;;;7.17;;
10588;SDS011;5342;55.676;13.346;2022-10-13T12:55:59;12.47;;;7.77;;
10588;SDS011;5342;55.676;13.346;2022-10-13T12:58:28;12.47;;;8.20;;
10588;SDS011;5342;55.676;13.346;2022-10-13T13:03:37;12.00;;;7.70;;
10588;SDS011;5342;55.676;13.346;2022-10-13T13:08:34;10.47;;;7.07;;
10588;SDS011;5342;55.676;13.346;2022-10-13T13:11:01;10.37;;;7.27;;
10588;SDS011;5342;55.676;13.346;2022-10-13T13:13:28;10.63;;;7.63;;
10588;SDS011;5342;55.676;13.346;2022-10-13T13:18:44;13.63;;;7.43;;
10588;SDS011;5342;55.676;13.346;2022-10-13T13:21:12;17.30;;;7.63;;
10588;SDS011;5342;55.676;13.346;2022-10-13T13:23:38;14.87;;;7.90;;
10588;SDS011;5342;55.676;13.346;2022-10-13T13:26:10;14.17;;;8.03;;
10588;SDS011;5342;55.676;13.346;2022-10-13T13:28:38;11.93;;;7.23;;
10588;SDS011;5342;55.676;13.346;2022-10-13T13:31:07;11.40;;;7.93;;
10588;SDS011;5342;55.676;13.346;2022-10-13T13:33:34;12.87;;;7.33;;
10588;SDS011;5342;55.676;13.346;2022-10-13T13:36:01;13.23;;;8.27;;
10588;SDS011;5342;55.676;13.346;2022-10-13T13:38:27;12.60;;;7.43;;
10588;SDS011;5342;55.676;13.346;2022-10-13T13:40:54;13.57;;;7.53;;
10588;SDS011;5342;55.676;13.346;2022-10-13T13:43:20;12.73;;;8.67;;
10588;SDS011;5342;55.676;13.346;2022-10-13T13:45:47;14.03;;;7.93;;
10588;SDS011;5342;55.676;13.346;2022-10-13T13:48:13;15.77;;;8.73;;
10588;SDS011;5342;55.676;13.346;2022-10-13T13:50:40;13.47;;;8.23;;
10588;SDS011;5342;55.676;13.346;2022-10-13T13:53:07;17.17;;;7.70;;
10588;SDS011;5342;55.676;13.346;2022-10-13T13:55:34;16.33;;;7.77;;
10588;SDS011;5342;55.676;13.346;2022-10-13T13:58:02;15.70;;;8.43;;
10588;SDS011;5342;55.676;13.346;2022-10-13T14:00:28;12.93;;;8.13;;
10588;SDS011;5342;55.676;13.346;2022-10-13T14:02:56;15.57;;;7.40;;
10588;SDS011;5342;55.676;13.346;2022-10-13T14:05:22;13.57;;;7.83;;
10588;SDS011;5342;55.676;13.346;2022-10-13T14:07:51;13.50;;;8.27;;
10588;SDS011;5342;55.676;13.346;2022-10-13T14:10:18;10.57;;;7.73;;
10588;SDS011;5342;55.676;13.346;2022-10-13T14:12:44;12.57;;;7.20;;
10588;SDS011;5342;55.676;13.346;2022-10-13T14:15:11;12.00;;;7.50;;
10588;SDS011;5342;55.676;13.346;2022-10-13T14:17:38;13.87;;;7.43;;
10588;SDS011;5342;55.676;13.346;2022-10-13T14:20:05;13.87;;;7.47;;
10588;SDS011;5342;55.676;13.346;2022-10-13T14:22:31;15.50;;;7.97;;
10588;SDS011;5342;55.676;13.346;2022-10-13T14:24:58;11.43;;;7.60;;
10588;SDS011;5342;55.676;13.346;2022-10-13T14:27:24;12.73;;;7.07;;
10588;SDS011;5342;55.676;13.346;2022-10-13T14:29:51;12.90;;;7.27;;
10588;SDS011;5342;55.676;13.346;2022-10-13T14:32:17;13.37;;;7.77;;
10588;SDS011;5342;55.676;13.346;2022-10-13T14:34:44;12.50;;;7.80;;
10588;SDS011;5342;55.676;13.346;2022-10-13T14:37:10;10.73;;;7.77;;
10588;SDS011;5342;55.676;13.346;2022-10-13T14:39:37;17.27;;;7.80;;
10588;SDS011;5342;55.676;13.346;2022-10-13T14:42:04;14.00;;;8.03;;
10588;SDS011;5342;55.676;13.346;2022-10-13T14:44:30;16.97;;;7.57;;
10588;SDS011;5342;55.676;13.346;2022-10-13T14:46:57;12.93;;;8.77;;
10588;SDS011;5342;55.676;13.346;2022-10-13T14:49:23;13.27;;;7.57;;
10588;SDS011;5342;55.676;13.346;2022-10-13T14:51:50;13.50;;;8.63;;
10588;SDS011;5342;55.676;13.346;2022-10-13T14:54:16;16.73;;;8.90;;
10588;SDS011;5342;55.676;13.346;2022-10-13T14:56:43;17.40;;;9.27;;
10588;SDS011;5342;55.676;13.346;2022-10-13T14:59:10;15.87;;;9.40;;
10588;SDS011;5342;55.676;13.346;2022-10-13T15:01:37;14.13;;;9.87;;
10588;SDS011;5342;55.676;13.346;2022-10-13T15:04:04;16.07;;;10.80;;
10588;SDS011;5342;55.676;13.346;2022-10-13T15:06:31;20.30;;;10.87;;
10588;SDS011;5342;55.676;13.346;2022-10-13T15:08:58;20.47;;;11.70;;
10588;SDS011;5342;55.676;13.346;2022-10-13T15:11:25;19.20;;;12.60;;
10588;SDS011;5342;55.676;13.346;2022-10-13T15:13:51;18.27;;;11.17;;
10588;SDS011;5342;55.676;13.346;2022-10-13T15:16:19;17.27;;;11.17;;
10588;SDS011;5342;55.676;13.346;2022-10-13T15:18:46;17.00;;;11.93;;
10588;SDS011;5342;55.676;13.346;2022-10-13T15:21:13;16.53;;;11.70;;
10588;SDS011;5342;55.676;13.346;2022-10-13T15:23:40;21.20;;;12.27;;
10588;SDS011;5342;55.676;13.346;2022-10-13T15:26:06;18.07;;;11.87;;
10588;SDS011;5342;55.676;13.346;2022-10-13T15:28:34;25.10;;;12.70;;
10588;SDS011;5342;55.676;13.346;2022-10-13T15:31:01;21.37;;;11.57;;
10588;SDS011;5342;55.676;13.346;2022-10-13T15:33:28;18.70;;;11.13;;
10588;SDS011;5342;55.676;13.346;2022-10-13T15:35:55;15.20;;;11.60;;
10588;SDS011;5342;55.676;13.346;2022-10-13T15:38:21;17.67;;;11.97;;
10588;SDS011;5342;55.676;13.346;2022-10-13T15:40:48;17.80;;;12.13;;
10588;SDS011;5342;55.676;13.346;2022-10-13T15:43:15;19.03;;;12.23;;
10588;SDS011;5342;55.676;13.346;2022-10-13T15:45:42;20.83;;;13.70;;
10588;SDS011;5342;55.676;13.346;2022-10-13T15:48:09;19.83;;;11.60;;
10588;SDS011;5342;55.676;13.346;2022-10-13T15:50:39;18.00;;;11.40;;
10588;SDS011;5342;55.676;13.346;2022-10-13T15:53:05;16.60;;;11.03;;
10588;SDS011;5342;55.676;13.346;2022-10-13T15:55:32;17.63;;;11.17;;
10588;SDS011;5342;55.676;13.346;2022-10-13T15:57:59;17.10;;;11.23;;
10588;SDS011;5342;55.676;13.346;2022-10-13T16:00:26;20.17;;;10.90;;
10588;SDS011;5342;55.676;13.346;2022-10-13T16:02:53;19.23;;;11.20;;
10588;SDS011;5342;55.676;13.346;2022-10-13T16:05:20;16.37;;;10.97;;
10588;SDS011;5342;55.676;13.346;2022-10-13T16:07:46;16.50;;;10.60;;
10588;SDS011;5342;55.676;13.346;2022-10-13T16:10:13;25.30;;;12.27;;
10588;SDS011;5342;55.676;13.346;2022-10-13T16:12:40;21.37;;;10.43;;
10588;SDS011;5342;55.676;13.346;2022-10-13T16:15:07;22.83;;;11.00;;
10588;SDS011;5342;55.676;13.346;2022-10-13T16:17:34;24.30;;;12.63;;
10588;SDS011;5342;55.676;13.346;2022-10-13T16:20:01;19.73;;;11.00;;
10588;SDS011;5342;55.676;13.346;2022-10-13T16:22:27;18.73;;;10.87;;
10588;SDS011;5342;55.676;13.346;2022-10-13T16:24:54;19.47;;;11.17;;
10588;SDS011;5342;55.676;13.346;2022-10-13T16:27:20;14.60;;;10.53;;
10588;SDS011;5342;55.676;13.346;2022-10-13T16:29:48;21.80;;;11.50;;